sensor_id;sensor_type;location;lat;lon;timestamp;temperature;humidity
26326;DHT22;14032;52.510;7.342;2024-01-15T00:01:49;1.60;99.90
26326;DHT22;14032;52.510;7.342;2024-01-15T00:04:15;1.60;99.90
26326;DHT22;14032;52.510;7.342;2024-01-15T00:06:40;1.60;99.90
26326;DHT22;14032;52.510;7.342;2024-01-15T00:09:06;1.60;99.90
26326;DHT22;14032;52.510;7.342;2024-01-15T00:11:32;1.50;99.90
26326;DHT22;14032;52.510;7.342;2024-01-15T00:13:57;1.50;99.90
26326;DHT22;14032;52.510;7.342;2024-01-15T00:16:23;1.50;99.90
26326;DHT22;14032;52.510;7.342;2024-01-15T00:18:49;1.40;99.90
26326;DHT22;14032;52.510;7.342;2024-01-15T00:21:15;1.40;99.90
26326;DHT22;14032;52.510;7.342;2024-01-15T00:23:44;1.40;99.90
26326;DHT22;14032;52.510;7.342;2024-01-15T00:26:10;1.40;99.90
26326;DHT22;14032;52.510;7.342;2024-01-15T00:28:36;1.30;99.90
26326;DHT22;14032;52.510;7.342;2024-01-15T00:31:03;1.30;99.90
26326;DHT22;14032;52.510;7.342;2024-01-15T00:33:29;1.30;99.90
26326;DHT22;14032;52.510;7.342;2024-01-15T00:35:55;1.30;99.90
26326;DHT22;14032;52.510;7.342;2024-01-15T00:38:20;1.30;99.90
26326;DHT22;14032;52.510;7.342;2024-01-15T00:40:46;1.30;99.90
26326;DHT22;14032;52.510;7.342;2024-01-15T00:43:11;1.30;99.90
26326;DHT22;14032;52.510;7.342;2024-01-15T00:45:37;1.30;99.90
26326;DHT22;14032;52.510;7.342;2024-01-15T00:48:03;1.30;99.90
26326;DHT22;14032;52.510;7.342;2024-01-15T00:50:29;1.30;99.90
26326;DHT22;14032;52.510;7.342;2024-01-15T00:52:55;1.30;99.90
26326;DHT22;14032;52.510;7.342;2024-01-15T00:55:20;1.30;99.90
26326;DHT22;14032;52.510;7.342;2024-01-15T00:57:46;1.30;99.90
26326;DHT22;14032;52.510;7.342;2024-01-15T01:00:12;1.30;99.90
26326;DHT22;14032;52.510;7.342;2024-01-15T01:02:37;1.30;99.90
26326;DHT22;14032;52.510;7.342;2024-01-15T01:05:03;1.30;99.90
26326;DHT22;14032;52.510;7.342;2024-01-15T01:07:29;1.20;99.90
26326;DHT22;14032;52.510;7.342;2024-01-15T01:09:55;1.20;99.90
26326;DHT22;14032;52.510;7.342;2024-01-15T01:12:20;1.20;99.90
26326;DHT22;14032;52.510;7.342;2024-01-15T01:14:46;1.20;99.90
26326;DHT22;14032;52.510;7.342;2024-01-15T01:17:12;1.20;99.90
26326;DHT22;14032;52.510;7.342;2024-01-15T01:19:37;1.20;99.90
26326;DHT22;14032;52.510;7.342;2024-01-15T01:22:03;1.20;99.90
26326;DHT22;14032;52.510;7.342;2024-01-15T01:24:29;1.20;99.90
26326;DHT22;14032;52.510;7.342;2024-01-15T01:26:55;1.20;99.90
26326;DHT22;14032;52.510;7.342;2024-01-15T01:29:20;1.20;99.90
26326;DHT22;14032;52.510;7.342;2024-01-15T01:31:46;1.30;99.90
26326;DHT22;14032;52.510;7.342;2024-01-15T01:34:15;1.30;99.90
26326;DHT22;14032;52.510;7.342;2024-01-15T01:36:41;1.30;99.90
26326;DHT22;14032;52.510;7.342;2024-01-15T01:39:06;1.30;99.90
26326;DHT22;14032;52.510;7.342;2024-01-15T01:41:32;1.30;99.90
26326;DHT22;14032;52.510;7.342;2024-01-15T01:43:58;1.30;99.90
26326;DHT22;14032;52.510;7.342;2024-01-15T01:46:24;1.30;99.90
26326;DHT22;14032;52.510;7.342;2024-01-15T01:48:51;1.30;99.90
26326;DHT22;14032;52.510;7.342;2024-01-15T01:51:18;1.40;99.90
26326;DHT22;14032;52.510;7.342;2024-01-15T01:53:44;1.40;99.90
26326;DHT22;14032;52.510;7.342;2024-01-15T01:56:11;1.40;99.90
26326;DHT22;14032;52.510;7.342;2024-01-15T01:58:37;1.40;99.90
26326;DHT22;14032;52.510;7.342;2024-01-15T02:01:03;1.40;99.90
26326;DHT22;14032;52.510;7.342;2024-01-15T02:03:30;1.40;99.90
26326;DHT22;14032;52.510;7.342;2024-01-15T02:05:56;1.40;99.90
26326;DHT22;14032;52.510;7.342;2024-01-15T02:08:22;1.40;99.90
26326;DHT22;14032;52.510;7.342;2024-01-15T02:10:48;1.40;99.90
26326;DHT22;14032;52.510;7.342;2024-01-15T02:13:13;1.50;99.90
26326;DHT22;14032;52.510;7.342;2024-01-15T02:15:40;1.50;99.90
26326;DHT22;14032;52.510;7.342;2024-01-15T02:18:06;1.50;99.90
26326;DHT22;14032;52.510;7.342;2024-01-15T02:20:35;1.50;99.90
26326;DHT22;14032;52.510;7.342;2024-01-15T02:23:13;1.50;99.90
26326;DHT22;14032;52.510;7.342;2024-01-15T02:25:43;1.50;99.90
26326;DHT22;14032;52.510;7.342;2024-01-15T02:28:11;1.50;99.90
26326;DHT22;14032;52.510;7.342;2024-01-15T02:30:38;1.50;99.90
26326;DHT22;14032;52.510;7.342;2024-01-15T02:33:05;1.40;99.90
26326;DHT22;14032;52.510;7.342;2024-01-15T02:35:31;1.40;99.90
26326;DHT22;14032;52.510;7.342;2024-01-15T02:37:57;1.40;99.90
26326;DHT22;14032;52.510;7.342;2024-01-15T02:40:22;1.40;99.90
26326;DHT22;14032;52.510;7.342;2024-01-15T02:42:48;1.40;99.90
26326;DHT22;14032;52.510;7.342;2024-01-15T02:45:13;1.40;99.90
26326;DHT22;14032;52.510;7.342;2024-01-15T02:47:39;1.40;99.90
26326;DHT22;14032;52.510;7.342;2024-01-15T02:50:05;1.30;99.90
26326;DHT22;14032;52.510;7.342;2024-01-15T02:52:31;1.30;99.90
26326;DHT22;14032;52.510;7.342;2024-01-15T02:54:56;1.30;99.90
26326;DHT22;14032;52.510;7.342;2024-01-15T02:57:22;1.30;99.90
26326;DHT22;14032;52.510;7.342;2024-01-15T02:59:48;1.30;99.90
26326;DHT22;14032;52.510;7.342;2024-01-15T03:02:13;1.30;99.90
26326;DHT22;14032;52.510;7.342;2024-01-15T03:04:45;1.30;99.90
26326;DHT22;14032;52.510;7.342;2024-01-15T03:07:11;1.30;99.90
26326;DHT22;14032;52.510;7.342;2024-01-15T03:09:37;1.40;99.90
26326;DHT22;14032;52.510;7.342;2024-01-15T03:12:03;1.40;99.90
26326;DHT22;14032;52.510;7.342;2024-01-15T03:14:29;1.40;99.90
26326;DHT22;14032;52.510;7.342;2024-01-15T03:16:55;1.50;99.90
26326;DHT22;14032;52.510;7.342;2024-01-15T03:19:20;1.50;99.90
26326;DHT22;14032;52.510;7.342;2024-01-15T03:21:46;1.50;99.90
26326;DHT22;14032;52.510;7.342;2024-01-15T03:24:11;1.50;99.90
26326;DHT22;14032;52.510;7.342;2024-01-15T03:26:37;1.50;99.90
26326;DHT22;14032;52.510;7.342;2024-01-15T03:29:02;1.50;99.90
26326;DHT22;14032;52.510;7.342;2024-01-15T03:31:28;1.50;99.90
26326;DHT22;14032;52.510;7.342;2024-01-15T03:33:54;1.50;99.90
26326;DHT22;14032;52.510;7.342;2024-01-15T03:36:19;1.50;99.90
26326;DHT22;14032;52.510;7.342;2024-01-15T03:38:45;1.50;99.90
26326;DHT22;14032;52.510;7.342;2024-01-15T03:41:11;1.50;99.90
26326;DHT22;14032;52.510;7.342;2024-01-15T03:43:36;1.50;99.90
26326;DHT22;14032;52.510;7.342;2024-01-15T03:46:02;1.50;99.90
26326;DHT22;14032;52.510;7.342;2024-01-15T03:48:28;1.50;99.90
26326;DHT22;14032;52.510;7.342;2024-01-15T03:50:53;1.50;99.90
26326;DHT22;14032;52.510;7.342;2024-01-15T03:53:19;1.40;99.90
26326;DHT22;14032;52.510;7.342;2024-01-15T03:55:45;1.40;99.90
26326;DHT22;14032;52.510;7.342;2024-01-15T03:58:10;1.40;99.90
26326;DHT22;14032;52.510;7.342;2024-01-15T04:00:36;1.40;99.90
26326;DHT22;14032;52.510;7.342;2024-01-15T04:03:01;1.40;99.90
26326;DHT22;14032;52.510;7.342;2024-01-15T04:05:27;1.40;99.90
26326;DHT22;14032;52.510;7.342;2024-01-15T04:07:52;1.40;99.90
26326;DHT22;14032;52.510;7.342;2024-01-15T04:10:18;1.40;99.90
26326;DHT22;14032;52.510;7.342;2024-01-15T04:12:43;1.30;99.90
26326;DHT22;14032;52.510;7.342;2024-01-15T04:15:12;1.30;99.90
26326;DHT22;14032;52.510;7.342;2024-01-15T04:17:37;1.40;99.90
26326;DHT22;14032;52.510;7.342;2024-01-15T04:20:03;1.40;99.90
26326;DHT22;14032;52.510;7.342;2024-01-15T04:22:29;1.40;99.90
26326;DHT22;14032;52.510;7.342;2024-01-15T04:24:55;1.40;99.90
26326;DHT22;14032;52.510;7.342;2024-01-15T04:27:20;1.40;99.90
26326;DHT22;14032;52.510;7.342;2024-01-15T04:29:46;1.40;99.90
26326;DHT22;14032;52.510;7.342;2024-01-15T04:32:11;1.40;99.90
26326;DHT22;14032;52.510;7.342;2024-01-15T04:34:37;1.30;99.90
26326;DHT22;14032;52.510;7.342;2024-01-15T04:37:03;1.30;99.90
26326;DHT22;14032;52.510;7.342;2024-01-15T04:39:29;1.30;99.90
26326;DHT22;14032;52.510;7.342;2024-01-15T04:41:54;1.30;99.90
26326;DHT22;14032;52.510;7.342;2024-01-15T04:44:20;1.30;99.90
26326;DHT22;14032;52.510;7.342;2024-01-15T04:46:45;1.30;99.90
26326;DHT22;14032;52.510;7.342;2024-01-15T04:49:11;1.20;99.90
26326;DHT22;14032;52.510;7.342;2024-01-15T04:51:37;1.20;99.90
26326;DHT22;14032;52.510;7.342;2024-01-15T04:54:03;1.20;99.90
26326;DHT22;14032;52.510;7.342;2024-01-15T04:56:28;1.30;99.90
26326;DHT22;14032;52.510;7.342;2024-01-15T04:58:54;1.20;99.90
26326;DHT22;14032;52.510;7.342;2024-01-15T05:01:20;1.30;99.90
26326;DHT22;14032;52.510;7.342;2024-01-15T05:03:45;1.20;99.90
26326;DHT22;14032;52.510;7.342;2024-01-15T05:06:11;1.20;99.90
26326;DHT22;14032;52.510;7.342;2024-01-15T05:08:36;1.20;99.90
26326;DHT22;14032;52.510;7.342;2024-01-15T05:11:02;1.20;99.90
26326;DHT22;14032;52.510;7.342;2024-01-15T05:13:27;1.20;99.90
26326;DHT22;14032;52.510;7.342;2024-01-15T05:15:53;1.20;99.90
26326;DHT22;14032;52.510;7.342;2024-01-15T05:18:19;1.20;99.90
26326;DHT22;14032;52.510;7.342;2024-01-15T05:20:44;1.20;99.90
26326;DHT22;14032;52.510;7.342;2024-01-15T05:23:10;1.20;99.90
26326;DHT22;14032;52.510;7.342;2024-01-15T05:25:35;1.20;99.90
26326;DHT22;14032;52.510;7.342;2024-01-15T05:28:01;1.20;99.90
26326;DHT22;14032;52.510;7.342;2024-01-15T05:30:27;1.20;99.90
26326;DHT22;14032;52.510;7.342;2024-01-15T05:32:53;1.20;99.90
26326;DHT22;14032;52.510;7.342;2024-01-15T05:35:19;1.20;99.90
26326;DHT22;14032;52.510;7.342;2024-01-15T05:37:45;1.20;99.90
26326;DHT22;14032;52.510;7.342;2024-01-15T05:40:12;1.20;99.90
26326;DHT22;14032;52.510;7.342;2024-01-15T05:42:41;1.20;99.90
26326;DHT22;14032;52.510;7.342;2024-01-15T05:45:07;1.20;99.90
26326;DHT22;14032;52.510;7.342;2024-01-15T05:47:33;1.30;99.90
26326;DHT22;14032;52.510;7.342;2024-01-15T05:50:00;1.20;99.90
26326;DHT22;14032;52.510;7.342;2024-01-15T05:52:25;1.20;99.90
26326;DHT22;14032;52.510;7.342;2024-01-15T05:54:51;1.30;99.90
26326;DHT22;14032;52.510;7.342;2024-01-15T05:57:17;1.20;99.90
26326;DHT22;14032;52.510;7.342;2024-01-15T05:59:43;1.30;99.90
26326;DHT22;14032;52.510;7.342;2024-01-15T06:02:09;1.30;99.90
26326;DHT22;14032;52.510;7.342;2024-01-15T06:04:35;1.30;99.90
26326;DHT22;14032;52.510;7.342;2024-01-15T06:07:01;1.30;99.90
26326;DHT22;14032;52.510;7.342;2024-01-15T06:09:26;1.20;99.90
26326;DHT22;14032;52.510;7.342;2024-01-15T06:11:53;1.30;99.90
26326;DHT22;14032;52.510;7.342;2024-01-15T06:14:18;1.30;99.90
26326;DHT22;14032;52.510;7.342;2024-01-15T06:16:44;1.30;99.90
26326;DHT22;14032;52.510;7.342;2024-01-15T06:19:09;1.20;99.90
26326;DHT22;14032;52.510;7.342;2024-01-15T06:21:35;1.30;99.90
26326;DHT22;14032;52.510;7.342;2024-01-15T06:24:01;1.30;99.90
26326;DHT22;14032;52.510;7.342;2024-01-15T06:26:26;1.20;99.90
26326;DHT22;14032;52.510;7.342;2024-01-15T06:28:52;1.20;99.90
26326;DHT22;14032;52.510;7.342;2024-01-15T06:31:17;1.20;99.90
26326;DHT22;14032;52.510;7.342;2024-01-15T06:33:43;1.20;99.90
26326;DHT22;14032;52.510;7.342;2024-01-15T06:36:10;1.20;99.90
26326;DHT22;14032;52.510;7.342;2024-01-15T06:38:36;1.20;99.90
26326;DHT22;14032;52.510;7.342;2024-01-15T06:41:01;1.30;99.90
26326;DHT22;14032;52.510;7.342;2024-01-15T06:43:27;1.30;99.90
26326;DHT22;14032;52.510;7.342;2024-01-15T06:45:52;1.30;99.90
26326;DHT22;14032;52.510;7.342;2024-01-15T06:48:18;1.30;99.90
26326;DHT22;14032;52.510;7.342;2024-01-15T06:50:44;1.30;99.90
26326;DHT22;14032;52.510;7.342;2024-01-15T06:53:09;1.30;99.90
26326;DHT22;14032;52.510;7.342;2024-01-15T06:55:35;1.30;99.90
26326;DHT22;14032;52.510;7.342;2024-01-15T06:58:00;1.30;99.90
26326;DHT22;14032;52.510;7.342;2024-01-15T07:00:26;1.30;99.90
26326;DHT22;14032;52.510;7.342;2024-01-15T07:02:58;1.30;99.90
26326;DHT22;14032;52.510;7.342;2024-01-15T07:05:24;1.30;99.90
26326;DHT22;14032;52.510;7.342;2024-01-15T07:07:50;1.30;99.90
26326;DHT22;14032;52.510;7.342;2024-01-15T07:10:16;1.30;99.90
26326;DHT22;14032;52.510;7.342;2024-01-15T07:12:42;1.20;99.90
26326;DHT22;14032;52.510;7.342;2024-01-15T07:15:08;1.20;99.90
26326;DHT22;14032;52.510;7.342;2024-01-15T07:17:35;1.20;99.90
26326;DHT22;14032;52.510;7.342;2024-01-15T07:20:00;1.10;99.90
26326;DHT22;14032;52.510;7.342;2024-01-15T07:22:26;1.20;99.90
26326;DHT22;14032;52.510;7.342;2024-01-15T07:24:52;1.10;99.90
26326;DHT22;14032;52.510;7.342;2024-01-15T07:27:18;1.20;99.90
26326;DHT22;14032;52.510;7.342;2024-01-15T07:29:43;1.10;99.90
26326;DHT22;14032;52.510;7.342;2024-01-15T07:32:09;1.10;99.90
26326;DHT22;14032;52.510;7.342;2024-01-15T07:34:35;1.10;99.90
26326;DHT22;14032;52.510;7.342;2024-01-15T07:37:01;1.10;99.90
26326;DHT22;14032;52.510;7.342;2024-01-15T07:39:27;1.10;99.90
26326;DHT22;14032;52.510;7.342;2024-01-15T07:41:54;1.10;99.90
26326;DHT22;14032;52.510;7.342;2024-01-15T07:44:20;1.10;99.90
26326;DHT22;14032;52.510;7.342;2024-01-15T07:46:46;1.00;99.90
26326;DHT22;14032;52.510;7.342;2024-01-15T07:49:13;1.00;99.90
26326;DHT22;14032;52.510;7.342;2024-01-15T07:51:38;1.00;99.90
26326;DHT22;14032;52.510;7.342;2024-01-15T07:54:05;1.00;99.90
26326;DHT22;14032;52.510;7.342;2024-01-15T07:56:31;1.00;99.90
26326;DHT22;14032;52.510;7.342;2024-01-15T07:58:57;1.00;99.90
26326;DHT22;14032;52.510;7.342;2024-01-15T08:01:22;0.90;99.90
26326;DHT22;14032;52.510;7.342;2024-01-15T08:03:48;0.90;99.90
26326;DHT22;14032;52.510;7.342;2024-01-15T08:06:14;0.90;99.90
26326;DHT22;14032;52.510;7.342;2024-01-15T08:08:41;0.90;99.90
26326;DHT22;14032;52.510;7.342;2024-01-15T08:11:06;1.00;99.90
26326;DHT22;14032;52.510;7.342;2024-01-15T08:13:32;1.00;99.90
26326;DHT22;14032;52.510;7.342;2024-01-15T08:15:58;1.00;99.90
26326;DHT22;14032;52.510;7.342;2024-01-15T08:18:24;1.00;99.90
26326;DHT22;14032;52.510;7.342;2024-01-15T08:20:50;1.00;99.90
26326;DHT22;14032;52.510;7.342;2024-01-15T08:23:17;1.00;99.90
26326;DHT22;14032;52.510;7.342;2024-01-15T08:25:43;1.00;99.90
26326;DHT22;14032;52.510;7.342;2024-01-15T08:28:08;1.00;99.90
26326;DHT22;14032;52.510;7.342;2024-01-15T08:30:34;1.00;99.90
26326;DHT22;14032;52.510;7.342;2024-01-15T08:33:00;1.10;99.90
26326;DHT22;14032;52.510;7.342;2024-01-15T08:35:25;1.10;99.90
26326;DHT22;14032;52.510;7.342;2024-01-15T08:37:52;1.00;99.90
26326;DHT22;14032;52.510;7.342;2024-01-15T08:40:18;1.00;99.90
26326;DHT22;14032;52.510;7.342;2024-01-15T08:42:44;1.00;99.90
26326;DHT22;14032;52.510;7.342;2024-01-15T08:45:11;1.10;99.90
26326;DHT22;14032;52.510;7.342;2024-01-15T08:47:37;1.10;99.90
26326;DHT22;14032;52.510;7.342;2024-01-15T08:50:03;1.10;99.90
26326;DHT22;14032;52.510;7.342;2024-01-15T08:52:29;1.10;99.90
26326;DHT22;14032;52.510;7.342;2024-01-15T08:54:58;1.10;99.90
26326;DHT22;14032;52.510;7.342;2024-01-15T08:57:23;1.10;99.90
26326;DHT22;14032;52.510;7.342;2024-01-15T08:59:49;1.20;99.90
26326;DHT22;14032;52.510;7.342;2024-01-15T09:02:15;1.20;99.90
26326;DHT22;14032;52.510;7.342;2024-01-15T09:04:41;1.20;99.90
26326;DHT22;14032;52.510;7.342;2024-01-15T09:07:07;1.30;99.90
26326;DHT22;14032;52.510;7.342;2024-01-15T09:09:33;1.20;99.90
26326;DHT22;14032;52.510;7.342;2024-01-15T09:12:00;1.30;99.90
26326;DHT22;14032;52.510;7.342;2024-01-15T09:14:25;1.20;99.90
26326;DHT22;14032;52.510;7.342;2024-01-15T09:16:52;1.30;99.90
26326;DHT22;14032;52.510;7.342;2024-01-15T09:19:18;1.30;99.90
26326;DHT22;14032;52.510;7.342;2024-01-15T09:21:44;1.30;99.90
26326;DHT22;14032;52.510;7.342;2024-01-15T09:24:10;1.30;99.90
26326;DHT22;14032;52.510;7.342;2024-01-15T09:26:35;1.30;99.90
26326;DHT22;14032;52.510;7.342;2024-01-15T09:29:01;1.40;99.90
26326;DHT22;14032;52.510;7.342;2024-01-15T09:31:26;1.50;99.90
26326;DHT22;14032;52.510;7.342;2024-01-15T09:33:52;1.60;99.90
26326;DHT22;14032;52.510;7.342;2024-01-15T09:36:21;1.60;99.90
26326;DHT22;14032;52.510;7.342;2024-01-15T09:38:48;1.60;99.90
26326;DHT22;14032;52.510;7.342;2024-01-15T09:41:14;1.60;99.90
26326;DHT22;14032;52.510;7.342;2024-01-15T09:43:40;1.60;99.90
26326;DHT22;14032;52.510;7.342;2024-01-15T09:46:06;1.60;99.90
26326;DHT22;14032;52.510;7.342;2024-01-15T09:48:32;1.60;99.90
26326;DHT22;14032;52.510;7.342;2024-01-15T09:51:01;1.60;99.90
26326;DHT22;14032;52.510;7.342;2024-01-15T09:53:27;1.60;99.90
26326;DHT22;14032;52.510;7.342;2024-01-15T09:55:53;1.60;99.90
26326;DHT22;14032;52.510;7.342;2024-01-15T09:58:18;1.60;99.90
26326;DHT22;14032;52.510;7.342;2024-01-15T10:00:45;1.60;99.90
26326;DHT22;14032;52.510;7.342;2024-01-15T10:03:13;1.60;99.90
26326;DHT22;14032;52.510;7.342;2024-01-15T10:05:46;1.70;99.90
26326;DHT22;14032;52.510;7.342;2024-01-15T10:08:18;1.70;99.90
26326;DHT22;14032;52.510;7.342;2024-01-15T10:10:44;1.80;99.90
26326;DHT22;14032;52.510;7.342;2024-01-15T10:13:09;1.80;99.90
26326;DHT22;14032;52.510;7.342;2024-01-15T10:15:38;1.80;99.90
26326;DHT22;14032;52.510;7.342;2024-01-15T10:18:04;1.80;99.90
26326;DHT22;14032;52.510;7.342;2024-01-15T10:20:32;1.80;99.90
26326;DHT22;14032;52.510;7.342;2024-01-15T10:22:59;1.90;99.90
26326;DHT22;14032;52.510;7.342;2024-01-15T10:25:25;2.00;99.90
26326;DHT22;14032;52.510;7.342;2024-01-15T10:28:04;2.10;99.90
26326;DHT22;14032;52.510;7.342;2024-01-15T10:30:31;2.10;99.90
26326;DHT22;14032;52.510;7.342;2024-01-15T10:33:02;2.10;99.90
26326;DHT22;14032;52.510;7.342;2024-01-15T10:35:32;2.10;99.90
26326;DHT22;14032;52.510;7.342;2024-01-15T10:37:59;2.00;99.90
26326;DHT22;14032;52.510;7.342;2024-01-15T10:40:25;1.90;99.90
26326;DHT22;14032;52.510;7.342;2024-01-15T10:42:50;1.90;99.90
26326;DHT22;14032;52.510;7.342;2024-01-15T10:45:17;1.80;99.90
26326;DHT22;14032;52.510;7.342;2024-01-15T10:47:43;1.80;99.90
26326;DHT22;14032;52.510;7.342;2024-01-15T10:50:09;1.80;99.90
26326;DHT22;14032;52.510;7.342;2024-01-15T10:52:36;1.90;99.90
26326;DHT22;14032;52.510;7.342;2024-01-15T10:55:06;1.80;99.90
26326;DHT22;14032;52.510;7.342;2024-01-15T10:57:33;1.80;99.90
26326;DHT22;14032;52.510;7.342;2024-01-15T10:59:59;1.90;99.90
26326;DHT22;14032;52.510;7.342;2024-01-15T11:02:25;1.90;99.90
26326;DHT22;14032;52.510;7.342;2024-01-15T11:04:51;2.00;99.90
26326;DHT22;14032;52.510;7.342;2024-01-15T11:07:17;1.90;99.90
26326;DHT22;14032;52.510;7.342;2024-01-15T11:09:43;2.00;99.90
26326;DHT22;14032;52.510;7.342;2024-01-15T11:12:13;2.10;99.90
26326;DHT22;14032;52.510;7.342;2024-01-15T11:14:45;2.10;99.90
26326;DHT22;14032;52.510;7.342;2024-01-15T11:17:11;2.10;99.90
26326;DHT22;14032;52.510;7.342;2024-01-15T11:19:45;2.10;99.90
26326;DHT22;14032;52.510;7.342;2024-01-15T11:24:55;2.20;99.90
26326;DHT22;14032;52.510;7.342;2024-01-15T11:27:49;2.20;99.90
26326;DHT22;14032;52.510;7.342;2024-01-15T11:30:18;2.10;99.90
26326;DHT22;14032;52.510;7.342;2024-01-15T11:32:45;2.10;99.90
26326;DHT22;14032;52.510;7.342;2024-01-15T11:35:12;2.10;99.90
26326;DHT22;14032;52.510;7.342;2024-01-15T11:40:37;2.10;99.90
26326;DHT22;14032;52.510;7.342;2024-01-15T11:43:04;2.10;99.90
26326;DHT22;14032;52.510;7.342;2024-01-15T11:45:30;2.10;99.90
26326;DHT22;14032;52.510;7.342;2024-01-15T11:48:15;2.20;99.90
26326;DHT22;14032;52.510;7.342;2024-01-15T11:50:45;2.20;99.90
26326;DHT22;14032;52.510;7.342;2024-01-15T11:55:45;2.20;99.90
26326;DHT22;14032;52.510;7.342;2024-01-15T11:58:11;2.20;99.90
26326;DHT22;14032;52.510;7.342;2024-01-15T12:00:42;2.20;99.90
26326;DHT22;14032;52.510;7.342;2024-01-15T12:03:08;2.20;99.90
26326;DHT22;14032;52.510;7.342;2024-01-15T12:05:39;2.30;99.90
26326;DHT22;14032;52.510;7.342;2024-01-15T12:08:07;2.30;99.90
26326;DHT22;14032;52.510;7.342;2024-01-15T12:10:39;2.40;99.90
26326;DHT22;14032;52.510;7.342;2024-01-15T12:13:15;2.30;99.90
26326;DHT22;14032;52.510;7.342;2024-01-15T12:15:44;2.30;99.90
26326;DHT22;14032;52.510;7.342;2024-01-15T12:18:12;2.30;99.90
26326;DHT22;14032;52.510;7.342;2024-01-15T12:20:39;2.30;99.90
26326;DHT22;14032;52.510;7.342;2024-01-15T12:23:05;2.30;99.90
26326;DHT22;14032;52.510;7.342;2024-01-15T12:25:32;2.40;99.90
26326;DHT22;14032;52.510;7.342;2024-01-15T12:27:59;2.40;99.90
26326;DHT22;14032;52.510;7.342;2024-01-15T12:30:30;2.40;99.90
26326;DHT22;14032;52.510;7.342;2024-01-15T12:32:57;2.30;99.90
26326;DHT22;14032;52.510;7.342;2024-01-15T12:35:24;2.40;99.90
26326;DHT22;14032;52.510;7.342;2024-01-15T12:37:49;2.40;99.90
26326;DHT22;14032;52.510;7.342;2024-01-15T12:40:19;2.40;99.90
26326;DHT22;14032;52.510;7.342;2024-01-15T12:42:45;2.50;99.90
26326;DHT22;14032;52.510;7.342;2024-01-15T12:45:12;2.40;99.90
26326;DHT22;14032;52.510;7.342;2024-01-15T12:47:41;2.50;99.90
26326;DHT22;14032;52.510;7.342;2024-01-15T12:50:11;2.50;99.90
26326;DHT22;14032;52.510;7.342;2024-01-15T12:52:37;2.40;99.90
26326;DHT22;14032;52.510;7.342;2024-01-15T12:55:05;2.40;99.90
26326;DHT22;14032;52.510;7.342;2024-01-15T12:57:31;2.30;99.90
26326;DHT22;14032;52.510;7.342;2024-01-15T12:59:57;2.20;99.90
26326;DHT22;14032;52.510;7.342;2024-01-15T13:02:22;2.10;99.90
26326;DHT22;14032;52.510;7.342;2024-01-15T13:04:48;2.00;99.90
26326;DHT22;14032;52.510;7.342;2024-01-15T13:07:14;2.00;99.90
26326;DHT22;14032;52.510;7.342;2024-01-15T13:09:40;1.90;99.90
26326;DHT22;14032;52.510;7.342;2024-01-15T13:12:05;1.90;99.90
26326;DHT22;14032;52.510;7.342;2024-01-15T13:14:31;1.80;99.90
26326;DHT22;14032;52.510;7.342;2024-01-15T13:16:58;1.70;99.90
26326;DHT22;14032;52.510;7.342;2024-01-15T13:19:24;1.60;99.90
26326;DHT22;14032;52.510;7.342;2024-01-15T13:21:50;1.50;99.90
26326;DHT22;14032;52.510;7.342;2024-01-15T13:24:17;1.40;99.90
26326;DHT22;14032;52.510;7.342;2024-01-15T13:26:43;1.30;99.90
26326;DHT22;14032;52.510;7.342;2024-01-15T13:29:09;1.30;99.90
26326;DHT22;14032;52.510;7.342;2024-01-15T13:31:34;1.30;99.90
26326;DHT22;14032;52.510;7.342;2024-01-15T13:34:00;1.30;99.90
26326;DHT22;14032;52.510;7.342;2024-01-15T13:36:26;1.30;99.90
26326;DHT22;14032;52.510;7.342;2024-01-15T13:38:52;1.20;99.90
26326;DHT22;14032;52.510;7.342;2024-01-15T13:41:19;1.30;99.90
26326;DHT22;14032;52.510;7.342;2024-01-15T13:43:49;1.30;99.90
26326;DHT22;14032;52.510;7.342;2024-01-15T13:46:16;1.30;99.90
26326;DHT22;14032;52.510;7.342;2024-01-15T13:48:42;1.30;99.90
26326;DHT22;14032;52.510;7.342;2024-01-15T13:51:09;1.20;99.90
26326;DHT22;14032;52.510;7.342;2024-01-15T13:53:38;1.20;99.90
26326;DHT22;14032;52.510;7.342;2024-01-15T13:56:04;1.20;99.90
26326;DHT22;14032;52.510;7.342;2024-01-15T13:58:30;1.20;99.90
26326;DHT22;14032;52.510;7.342;2024-01-15T14:00:58;1.10;99.90
26326;DHT22;14032;52.510;7.342;2024-01-15T14:03:31;1.20;99.90
26326;DHT22;14032;52.510;7.342;2024-01-15T14:06:06;1.10;99.90
26326;DHT22;14032;52.510;7.342;2024-01-15T14:09:14;1.20;99.90
26326;DHT22;14032;52.510;7.342;2024-01-15T14:11:54;1.20;99.90
26326;DHT22;14032;52.510;7.342;2024-01-15T14:14:25;1.20;99.90
26326;DHT22;14032;52.510;7.342;2024-01-15T14:16:54;1.20;99.90
26326;DHT22;14032;52.510;7.342;2024-01-15T14:19:33;1.20;99.90
26326;DHT22;14032;52.510;7.342;2024-01-15T14:22:02;1.30;99.90
26326;DHT22;14032;52.510;7.342;2024-01-15T14:24:36;1.30;99.90
26326;DHT22;14032;52.510;7.342;2024-01-15T14:27:02;1.30;99.90
26326;DHT22;14032;52.510;7.342;2024-01-15T14:29:28;1.30;99.90
26326;DHT22;14032;52.510;7.342;2024-01-15T14:31:53;1.30;99.90
26326;DHT22;14032;52.510;7.342;2024-01-15T14:34:19;1.30;99.90
26326;DHT22;14032;52.510;7.342;2024-01-15T14:36:49;1.40;99.90
26326;DHT22;14032;52.510;7.342;2024-01-15T14:39:15;1.30;99.90
26326;DHT22;14032;52.510;7.342;2024-01-15T14:41:40;1.40;99.90
26326;DHT22;14032;52.510;7.342;2024-01-15T14:44:06;1.40;99.90
26326;DHT22;14032;52.510;7.342;2024-01-15T14:46:31;1.40;99.90
26326;DHT22;14032;52.510;7.342;2024-01-15T14:48:57;1.40;99.90
26326;DHT22;14032;52.510;7.342;2024-01-15T14:51:25;1.40;99.90
26326;DHT22;14032;52.510;7.342;2024-01-15T14:53:51;1.40;99.90
26326;DHT22;14032;52.510;7.342;2024-01-15T14:56:17;1.40;99.90
26326;DHT22;14032;52.510;7.342;2024-01-15T14:58:42;1.30;99.90
26326;DHT22;14032;52.510;7.342;2024-01-15T15:01:08;1.30;99.90
26326;DHT22;14032;52.510;7.342;2024-01-15T15:03:33;1.40;99.90
26326;DHT22;14032;52.510;7.342;2024-01-15T15:05:59;1.40;99.90
26326;DHT22;14032;52.510;7.342;2024-01-15T15:08:25;1.40;99.90
26326;DHT22;14032;52.510;7.342;2024-01-15T15:10:52;1.40;99.90
26326;DHT22;14032;52.510;7.342;2024-01-15T15:13:18;1.40;99.90
26326;DHT22;14032;52.510;7.342;2024-01-15T15:15:43;1.30;99.90
26326;DHT22;14032;52.510;7.342;2024-01-15T15:18:09;1.30;99.90
26326;DHT22;14032;52.510;7.342;2024-01-15T15:20:34;1.30;99.90
26326;DHT22;14032;52.510;7.342;2024-01-15T15:23:00;1.30;99.90
26326;DHT22;14032;52.510;7.342;2024-01-15T15:25:26;1.30;99.90
26326;DHT22;14032;52.510;7.342;2024-01-15T15:27:51;1.30;99.90
26326;DHT22;14032;52.510;7.342;2024-01-15T15:30:17;1.30;99.90
26326;DHT22;14032;52.510;7.342;2024-01-15T15:32:43;1.30;99.90
26326;DHT22;14032;52.510;7.342;2024-01-15T15:35:08;1.30;99.90
26326;DHT22;14032;52.510;7.342;2024-01-15T15:37:34;1.40;99.90
26326;DHT22;14032;52.510;7.342;2024-01-15T15:40:00;1.40;99.90
26326;DHT22;14032;52.510;7.342;2024-01-15T15:42:25;1.40;99.90
26326;DHT22;14032;52.510;7.342;2024-01-15T15:44:51;1.40;99.90
26326;DHT22;14032;52.510;7.342;2024-01-15T15:47:18;1.40;99.90
26326;DHT22;14032;52.510;7.342;2024-01-15T15:49:44;1.40;99.90